sensor_id;sensor_type;location;lat;lon;timestamp;pressure;altitude;pressure_sealevel;temperature;humidity
68380;BME280;57711;53.196;19.638;2023-04-02T00:06:36;99406.67;;;5.97;70.05
68380;BME280;57711;53.196;19.638;2023-04-02T00:11:46;99409.70;;;5.96;70.24
68380;BME280;57711;53.196;19.638;2023-04-02T00:14:22;99415.28;;;5.91;70.05
68380;BME280;57711;53.196;19.638;2023-04-02T00:16:51;99412.86;;;5.83;69.96
68380;BME280;57711;53.196;19.638;2023-04-02T00:19:30;99424.25;;;5.80;69.89
68380;BME280;57711;53.196;19.638;2023-04-02T00:22:02;99424.17;;;5.79;69.92
68380;BME280;57711;53.196;19.638;2023-04-02T00:24:32;99428.33;;;5.81;70.08
68380;BME280;57711;53.196;19.638;2023-04-02T00:26:59;99429.80;;;5.82;70.09
68380;BME280;57711;53.196;19.638;2023-04-02T00:29:27;99431.96;;;5.84;70.05
68380;BME280;57711;53.196;19.638;2023-04-02T00:31:57;99430.16;;;5.85;69.89
68380;BME280;57711;53.196;19.638;2023-04-02T00:34:31;99437.13;;;5.83;70.02
68380;BME280;57711;53.196;19.638;2023-04-02T00:36:59;99440.21;;;5.82;70.09
68380;BME280;57711;53.196;19.638;2023-04-02T00:39:29;99440.13;;;5.81;69.93
68380;BME280;57711;53.196;19.638;2023-04-02T00:41:59;99441.90;;;5.77;69.87
68380;BME280;57711;53.196;19.638;2023-04-02T00:44:36;99447.96;;;5.75;70.03
68380;BME280;57711;53.196;19.638;2023-04-02T00:47:16;99449.23;;;5.73;69.99
68380;BME280;57711;53.196;19.638;2023-04-02T00:49:48;99447.14;;;5.72;69.94
68380;BME280;57711;53.196;19.638;2023-04-02T00:52:23;99455.21;;;5.70;69.79
68380;BME280;57711;53.196;19.638;2023-04-02T00:54:59;99455.02;;;5.70;69.84
68380;BME280;57711;53.196;19.638;2023-04-02T00:57:29;99456.95;;;5.71;69.96
68380;BME280;57711;53.196;19.638;2023-04-02T01:00:16;99460.95;;;5.70;69.77
68380;BME280;57711;53.196;19.638;2023-04-02T01:05:39;99463.90;;;5.64;69.80
68380;BME280;57711;53.196;19.638;2023-04-02T01:08:24;99471.73;;;5.61;69.93
68380;BME280;57711;53.196;19.638;2023-04-02T01:13:39;99479.89;;;5.60;70.02
68380;BME280;57711;53.196;19.638;2023-04-02T01:21:35;99480.67;;;5.59;69.85
68380;BME280;57711;53.196;19.638;2023-04-02T01:24:11;99485.13;;;5.55;69.68
68380;BME280;57711;53.196;19.638;2023-04-02T01:27:00;99491.61;;;5.53;69.79
68380;BME280;57711;53.196;19.638;2023-04-02T01:29:41;99492.95;;;5.51;69.84
68380;BME280;57711;53.196;19.638;2023-04-02T01:32:13;99495.55;;;5.50;70.02
68380;BME280;57711;53.196;19.638;2023-04-02T01:34:42;99497.17;;;5.48;69.84
68380;BME280;57711;53.196;19.638;2023-04-02T01:45:14;99501.99;;;5.46;69.78
68380;BME280;57711;53.196;19.638;2023-04-02T01:47:42;99502.63;;;5.47;69.83
68380;BME280;57711;53.196;19.638;2023-04-02T01:52:53;99515.02;;;5.42;69.64
68380;BME280;57711;53.196;19.638;2023-04-02T01:58:05;99521.41;;;5.34;69.64
68380;BME280;57711;53.196;19.638;2023-04-02T02:00:34;99526.02;;;5.30;69.64
68380;BME280;57711;53.196;19.638;2023-04-02T02:03:04;99524.80;;;5.25;69.68
68380;BME280;57711;53.196;19.638;2023-04-02T02:05:32;99528.26;;;5.22;69.67
68380;BME280;57711;53.196;19.638;2023-04-02T02:08:01;99534.17;;;5.20;69.50
68380;BME280;57711;53.196;19.638;2023-04-02T02:10:34;99534.17;;;5.18;69.44
68380;BME280;57711;53.196;19.638;2023-04-02T02:13:02;99537.09;;;5.20;69.69
68380;BME280;57711;53.196;19.638;2023-04-02T02:15:31;99543.63;;;5.22;69.79
68380;BME280;57711;53.196;19.638;2023-04-02T02:18:03;99547.36;;;5.25;69.76
68380;BME280;57711;53.196;19.638;2023-04-02T02:20:32;99550.66;;;5.24;69.60
68380;BME280;57711;53.196;19.638;2023-04-02T02:23:01;99555.06;;;5.25;69.70
68380;BME280;57711;53.196;19.638;2023-04-02T02:25:32;99552.55;;;5.23;69.71
68380;BME280;57711;53.196;19.638;2023-04-02T02:33:08;99563.73;;;5.16;69.45
68380;BME280;57711;53.196;19.638;2023-04-02T02:35:52;99557.91;;;5.14;69.58
68380;BME280;57711;53.196;19.638;2023-04-02T02:41:25;99568.19;;;5.18;69.57
68380;BME280;57711;53.196;19.638;2023-04-02T02:46:26;99569.63;;;5.20;69.47
68380;BME280;57711;53.196;19.638;2023-04-02T02:48:56;99572.20;;;5.19;69.52
68380;BME280;57711;53.196;19.638;2023-04-02T02:51:38;99575.48;;;5.16;69.48
68380;BME280;57711;53.196;19.638;2023-04-02T02:54:07;99574.64;;;5.18;69.73
68380;BME280;57711;53.196;19.638;2023-04-02T02:56:41;99584.36;;;5.20;69.77
68380;BME280;57711;53.196;19.638;2023-04-02T02:59:13;99585.88;;;5.21;69.62
68380;BME280;57711;53.196;19.638;2023-04-02T03:01:43;99591.66;;;5.20;69.77
68380;BME280;57711;53.196;19.638;2023-04-02T03:04:10;99592.58;;;5.18;69.60
68380;BME280;57711;53.196;19.638;2023-04-02T03:06:38;99595.86;;;5.19;69.52
68380;BME280;57711;53.196;19.638;2023-04-02T03:09:21;99597.49;;;5.19;69.60
68380;BME280;57711;53.196;19.638;2023-04-02T03:12:04;99602.23;;;5.20;69.66
68380;BME280;57711;53.196;19.638;2023-04-02T03:14:40;99605.13;;;5.20;69.53
68380;BME280;57711;53.196;19.638;2023-04-02T03:17:19;99607.09;;;5.20;69.54
68380;BME280;57711;53.196;19.638;2023-04-02T03:20:01;99610.64;;;5.20;69.55
68380;BME280;57711;53.196;19.638;2023-04-02T03:22:50;99613.04;;;5.24;69.71
68380;BME280;57711;53.196;19.638;2023-04-02T03:25:38;99613.16;;;5.23;69.72
68380;BME280;57711;53.196;19.638;2023-04-02T03:28:15;99615.77;;;5.19;69.59
68380;BME280;57711;53.196;19.638;2023-04-02T03:30:53;99623.81;;;5.17;69.59
68380;BME280;57711;53.196;19.638;2023-04-02T03:33:31;99626.95;;;5.16;69.71
68380;BME280;57711;53.196;19.638;2023-04-02T03:36:10;99627.33;;;5.16;69.51
68380;BME280;57711;53.196;19.638;2023-04-02T03:44:20;99641.26;;;5.25;69.58
68380;BME280;57711;53.196;19.638;2023-04-02T03:46:53;99642.94;;;5.25;69.49
68380;BME280;57711;53.196;19.638;2023-04-02T03:49:29;99647.19;;;5.25;69.48
68380;BME280;57711;53.196;19.638;2023-04-02T03:52:27;99655.26;;;5.25;69.47
68380;BME280;57711;53.196;19.638;2023-04-02T03:54:59;99656.04;;;5.24;69.47
68380;BME280;57711;53.196;19.638;2023-04-02T03:57:39;99658.69;;;5.22;69.55
68380;BME280;57711;53.196;19.638;2023-04-02T04:02:55;99668.02;;;5.20;69.55
68380;BME280;57711;53.196;19.638;2023-04-02T04:05:29;99671.17;;;5.19;69.61
68380;BME280;57711;53.196;19.638;2023-04-02T04:08:11;99676.52;;;5.19;69.53
68380;BME280;57711;53.196;19.638;2023-04-02T04:10:41;99679.14;;;5.20;69.62
68380;BME280;57711;53.196;19.638;2023-04-02T04:13:14;99683.84;;;5.20;69.40
68380;BME280;57711;53.196;19.638;2023-04-02T04:15:51;99693.84;;;5.18;69.39
68380;BME280;57711;53.196;19.638;2023-04-02T04:20:58;99700.23;;;5.14;69.48
68380;BME280;57711;53.196;19.638;2023-04-02T04:23:36;99702.81;;;5.13;69.74
68380;BME280;57711;53.196;19.638;2023-04-02T04:26:21;99704.90;;;5.14;69.63
68380;BME280;57711;53.196;19.638;2023-04-02T04:31:45;99712.04;;;5.09;69.58
68380;BME280;57711;53.196;19.638;2023-04-02T04:34:28;99711.58;;;5.10;69.66
68380;BME280;57711;53.196;19.638;2023-04-02T04:37:01;99710.02;;;5.12;69.58
68380;BME280;57711;53.196;19.638;2023-04-02T04:39:44;99714.67;;;5.15;69.53
68380;BME280;57711;53.196;19.638;2023-04-02T04:42:19;99718.08;;;5.17;69.62
68380;BME280;57711;53.196;19.638;2023-04-02T04:44:57;99722.20;;;5.19;69.44
68380;BME280;57711;53.196;19.638;2023-04-02T04:47:37;99723.38;;;5.18;69.45
68380;BME280;57711;53.196;19.638;2023-04-02T04:52:52;99729.33;;;5.13;69.50
68380;BME280;57711;53.196;19.638;2023-04-02T04:55:36;99731.77;;;5.09;69.51
68380;BME280;57711;53.196;19.638;2023-04-02T04:58:16;99734.94;;;5.05;69.48
68380;BME280;57711;53.196;19.638;2023-04-02T05:01:06;99739.92;;;5.01;69.46
68380;BME280;57711;53.196;19.638;2023-04-02T05:03:41;99743.34;;;4.96;69.43
68380;BME280;57711;53.196;19.638;2023-04-02T05:06:35;99745.81;;;4.96;69.43
68380;BME280;57711;53.196;19.638;2023-04-02T05:09:13;99750.25;;;4.99;69.53
68380;BME280;57711;53.196;19.638;2023-04-02T05:11:48;99757.08;;;5.01;69.51
68380;BME280;57711;53.196;19.638;2023-04-02T05:14:25;99760.45;;;5.02;69.48
68380;BME280;57711;53.196;19.638;2023-04-02T05:17:10;99767.71;;;5.00;69.47
68380;BME280;57711;53.196;19.638;2023-04-02T05:19:48;99767.86;;;4.98;69.38
68380;BME280;57711;53.196;19.638;2023-04-02T05:22:25;99774.92;;;4.95;69.39
68380;BME280;57711;53.196;19.638;2023-04-02T05:25:20;99775.94;;;4.91;69.31
68380;BME280;57711;53.196;19.638;2023-04-02T05:30:46;99781.52;;;4.83;69.28
68380;BME280;57711;53.196;19.638;2023-04-02T05:36:02;99788.64;;;4.74;69.27
68380;BME280;57711;53.196;19.638;2023-04-02T05:38:37;99792.30;;;4.72;69.34
68380;BME280;57711;53.196;19.638;2023-04-02T05:44:35;99800.02;;;4.75;69.28
68380;BME280;57711;53.196;19.638;2023-04-02T05:47:12;99802.32;;;4.75;69.23
68380;BME280;57711;53.196;19.638;2023-04-02T05:52:19;99811.70;;;4.71;69.28
68380;BME280;57711;53.196;19.638;2023-04-02T05:57:49;99815.05;;;4.70;69.39
68380;BME280;57711;53.196;19.638;2023-04-02T06:03:16;99823.05;;;4.68;69.43
68380;BME280;57711;53.196;19.638;2023-04-02T06:05:53;99827.50;;;4.66;69.34
68380;BME280;57711;53.196;19.638;2023-04-02T06:08:31;99829.14;;;4.68;69.37
68380;BME280;57711;53.196;19.638;2023-04-02T06:11:20;99834.40;;;4.70;69.25
68380;BME280;57711;53.196;19.638;2023-04-02T06:13:50;99835.80;;;4.68;69.20
68380;BME280;57711;53.196;19.638;2023-04-02T06:16:19;99841.63;;;4.69;69.29
68380;BME280;57711;53.196;19.638;2023-04-02T06:18:51;99836.06;;;4.69;69.25
68380;BME280;57711;53.196;19.638;2023-04-02T06:21:20;99842.80;;;4.70;69.40
68380;BME280;57711;53.196;19.638;2023-04-02T06:24:02;99836.50;;;4.70;69.39
68380;BME280;57711;53.196;19.638;2023-04-02T06:26:49;99845.60;;;4.68;69.39
68380;BME280;57711;53.196;19.638;2023-04-02T06:29:33;99852.27;;;4.68;69.42
68380;BME280;57711;53.196;19.638;2023-04-02T06:32:10;99855.16;;;4.70;69.51
68380;BME280;57711;53.196;19.638;2023-04-02T06:34:41;99855.20;;;4.69;69.31
68380;BME280;57711;53.196;19.638;2023-04-02T06:37:26;99859.50;;;4.69;69.32
68380;BME280;57711;53.196;19.638;2023-04-02T06:40:24;99865.15;;;4.70;69.38
68380;BME280;57711;53.196;19.638;2023-04-02T06:42:55;99868.61;;;4.75;69.28
68380;BME280;57711;53.196;19.638;2023-04-02T06:46:01;99876.65;;;4.72;69.17
68380;BME280;57711;53.196;19.638;2023-04-02T06:48:46;99877.52;;;4.70;69.18
68380;BME280;57711;53.196;19.638;2023-04-02T06:51:17;99883.66;;;4.69;69.26
68380;BME280;57711;53.196;19.638;2023-04-02T06:53:47;99886.05;;;4.69;69.37
68380;BME280;57711;53.196;19.638;2023-04-02T06:56:38;99888.71;;;4.69;69.36
68380;BME280;57711;53.196;19.638;2023-04-02T06:59:08;99891.00;;;4.67;69.18
68380;BME280;57711;53.196;19.638;2023-04-02T07:01:48;99894.08;;;4.67;69.23
68380;BME280;57711;53.196;19.638;2023-04-02T07:04:18;99898.74;;;4.67;69.21
68380;BME280;57711;53.196;19.638;2023-04-02T07:06:49;99907.10;;;4.67;69.17
68380;BME280;57711;53.196;19.638;2023-04-02T07:09:18;99906.74;;;4.67;69.20
68380;BME280;57711;53.196;19.638;2023-04-02T07:11:49;99908.38;;;4.70;69.28
68380;BME280;57711;53.196;19.638;2023-04-02T07:14:17;99908.89;;;4.72;69.46
68380;BME280;57711;53.196;19.638;2023-04-02T07:16:45;99913.51;;;4.76;69.53
68380;BME280;57711;53.196;19.638;2023-04-02T07:19:17;99920.84;;;4.76;69.39
68380;BME280;57711;53.196;19.638;2023-04-02T07:21:47;99926.86;;;4.75;69.40
68380;BME280;57711;53.196;19.638;2023-04-02T07:24:15;99927.47;;;4.70;69.42
68380;BME280;57711;53.196;19.638;2023-04-02T07:26:42;99932.83;;;4.71;69.44
68380;BME280;57711;53.196;19.638;2023-04-02T07:29:13;99936.27;;;4.73;69.54
68380;BME280;57711;53.196;19.638;2023-04-02T07:31:42;99938.03;;;4.76;69.40
68380;BME280;57711;53.196;19.638;2023-04-02T07:34:09;99947.82;;;4.74;69.20
68380;BME280;57711;53.196;19.638;2023-04-02T07:36:37;99950.73;;;4.73;69.37
68380;BME280;57711;53.196;19.638;2023-04-02T07:39:04;99952.73;;;4.73;69.26
68380;BME280;57711;53.196;19.638;2023-04-02T07:41:31;99958.23;;;4.71;69.39
68380;BME280;57711;53.196;19.638;2023-04-02T07:43:58;99961.36;;;4.70;69.38
68380;BME280;57711;53.196;19.638;2023-04-02T07:46:25;99962.00;;;4.69;69.54
68380;BME280;57711;53.196;19.638;2023-04-02T07:48:53;99969.47;;;4.69;69.37
68380;BME280;57711;53.196;19.638;2023-04-02T07:51:23;99972.33;;;4.69;69.51
68380;BME280;57711;53.196;19.638;2023-04-02T07:53:51;99975.19;;;4.72;69.52
68380;BME280;57711;53.196;19.638;2023-04-02T07:56:23;99978.71;;;4.73;69.25
68380;BME280;57711;53.196;19.638;2023-04-02T07:58:51;99978.45;;;4.74;69.46
68380;BME280;57711;53.196;19.638;2023-04-02T08:01:21;99985.31;;;4.76;69.40
68380;BME280;57711;53.196;19.638;2023-04-02T08:03:55;99987.40;;;4.77;69.32
68380;BME280;57711;53.196;19.638;2023-04-02T08:06:24;99994.18;;;4.80;69.45
68380;BME280;57711;53.196;19.638;2023-04-02T08:08:51;99994.62;;;4.81;69.31
68380;BME280;57711;53.196;19.638;2023-04-02T08:11:19;99994.98;;;4.81;69.44
68380;BME280;57711;53.196;19.638;2023-04-02T08:13:46;99997.65;;;4.81;69.47
68380;BME280;57711;53.196;19.638;2023-04-02T08:16:13;99999.64;;;4.81;69.48
68380;BME280;57711;53.196;19.638;2023-04-02T08:18:41;99998.52;;;4.82;69.47
68380;BME280;57711;53.196;19.638;2023-04-02T08:21:09;100001.99;;;4.81;69.46
68380;BME280;57711;53.196;19.638;2023-04-02T08:23:37;100004.66;;;4.79;69.45
68380;BME280;57711;53.196;19.638;2023-04-02T08:26:05;100007.88;;;4.78;69.40
68380;BME280;57711;53.196;19.638;2023-04-02T08:28:32;100008.38;;;4.77;69.47
68380;BME280;57711;53.196;19.638;2023-04-02T08:31:00;100013.05;;;4.76;69.37
68380;BME280;57711;53.196;19.638;2023-04-02T08:33:28;100014.95;;;4.77;69.46
68380;BME280;57711;53.196;19.638;2023-04-02T08:35:55;100022.16;;;4.79;69.35
68380;BME280;57711;53.196;19.638;2023-04-02T08:38:22;100017.60;;;4.78;69.33
68380;BME280;57711;53.196;19.638;2023-04-02T08:40:51;100022.71;;;4.74;69.31
68380;BME280;57711;53.196;19.638;2023-04-02T08:43:32;100024.76;;;4.73;69.42
68380;BME280;57711;53.196;19.638;2023-04-02T08:48:40;100033.49;;;4.71;69.39
68380;BME280;57711;53.196;19.638;2023-04-02T08:51:27;100031.66;;;4.69;69.41
68380;BME280;57711;53.196;19.638;2023-04-02T08:54:06;100039.76;;;4.71;69.45
68380;BME280;57711;53.196;19.638;2023-04-02T08:56:42;100042.41;;;4.74;69.35
68380;BME280;57711;53.196;19.638;2023-04-02T08:59:31;100042.16;;;4.78;69.49
68380;BME280;57711;53.196;19.638;2023-04-02T09:04:37;100047.27;;;4.84;69.40
68380;BME280;57711;53.196;19.638;2023-04-02T09:07:11;100050.73;;;4.83;69.47
68380;BME280;57711;53.196;19.638;2023-04-02T09:09:40;100057.13;;;4.81;69.26
68380;BME280;57711;53.196;19.638;2023-04-02T09:12:19;100062.45;;;4.77;69.32
68380;BME280;57711;53.196;19.638;2023-04-02T09:17:23;100065.54;;;4.73;69.41
68380;BME280;57711;53.196;19.638;2023-04-02T09:20:12;100075.05;;;4.73;69.30
68380;BME280;57711;53.196;19.638;2023-04-02T09:22:44;100075.36;;;4.74;69.38
68380;BME280;57711;53.196;19.638;2023-04-02T09:25:20;100084.15;;;4.76;69.28
68380;BME280;57711;53.196;19.638;2023-04-02T09:27:50;100083.67;;;4.78;69.52
68380;BME280;57711;53.196;19.638;2023-04-02T09:30:31;100086.66;;;4.82;69.38
68380;BME280;57711;53.196;19.638;2023-04-02T09:33:05;100087.91;;;4.84;69.44
68380;BME280;57711;53.196;19.638;2023-04-02T09:35:52;100090.95;;;4.87;69.31
68380;BME280;57711;53.196;19.638;2023-04-02T09:38:24;100097.30;;;4.86;69.43
68380;BME280;57711;53.196;19.638;2023-04-02T09:43:27;100107.10;;;4.81;69.34
68380;BME280;57711;53.196;19.638;2023-04-02T09:46:02;100107.41;;;4.77;69.31
68380;BME280;57711;53.196;19.638;2023-04-02T09:48:37;100106.51;;;4.77;69.47
68380;BME280;57711;53.196;19.638;2023-04-02T09:51:17;100110.85;;;4.81;69.53
68380;BME280;57711;53.196;19.638;2023-04-02T09:53:48;100113.14;;;4.85;69.61
68380;BME280;57711;53.196;19.638;2023-04-02T09:56:22;100116.94;;;4.87;69.34
68380;BME280;57711;53.196;19.638;2023-04-02T09:59:14;100121.39;;;4.87;69.31
68380;BME280;57711;53.196;19.638;2023-04-02T10:04:41;100131.45;;;4.84;69.37
68380;BME280;57711;53.196;19.638;2023-04-02T10:07:36;100136.39;;;4.83;69.36
68380;BME280;57711;53.196;19.638;2023-04-02T10:12:49;100145.20;;;4.82;69.50
68380;BME280;57711;53.196;19.638;2023-04-02T10:15:24;100147.19;;;4.84;69.52
68380;BME280;57711;53.196;19.638;2023-04-02T10:18:03;100146.50;;;4.87;69.47
68380;BME280;57711;53.196;19.638;2023-04-02T10:20:33;100148.71;;;4.88;69.44
68380;BME280;57711;53.196;19.638;2023-04-02T10:23:17;100153.99;;;4.90;69.52
68380;BME280;57711;53.196;19.638;2023-04-02T10:31:38;100159.16;;;4.85;69.29
68380;BME280;57711;53.196;19.638;2023-04-02T10:34:20;100166.52;;;4.82;69.46
68380;BME280;57711;53.196;19.638;2023-04-02T10:36:52;100164.38;;;4.82;69.42
68380;BME280;57711;53.196;19.638;2023-04-02T10:41:53;100169.87;;;4.86;69.43
68380;BME280;57711;53.196;19.638;2023-04-02T10:44:32;100174.79;;;4.87;69.14
68380;BME280;57711;53.196;19.638;2023-04-02T10:47:10;100175.52;;;4.89;69.46
68380;BME280;57711;53.196;19.638;2023-04-02T10:49:49;100179.26;;;4.92;69.45
68380;BME280;57711;53.196;19.638;2023-04-02T10:54:50;100183.80;;;4.95;69.37
68380;BME280;57711;53.196;19.638;2023-04-02T11:05:48;100206.66;;;5.01;69.21
68380;BME280;57711;53.196;19.638;2023-04-02T11:08:24;100212.40;;;5.01;69.29
68380;BME280;57711;53.196;19.638;2023-04-02T11:11:02;100212.38;;;5.04;69.38
68380;BME280;57711;53.196;19.638;2023-04-02T11:16:16;100220.77;;;5.04;69.36
68380;BME280;57711;53.196;19.638;2023-04-02T11:21:39;100233.95;;;5.00;69.17
68380;BME280;57711;53.196;19.638;2023-04-02T11:24:47;100241.30;;;5.03;69.36
68380;BME280;57711;53.196;19.638;2023-04-02T11:27:17;100238.21;;;5.08;69.21
68380;BME280;57711;53.196;19.638;2023-04-02T11:30:05;100239.45;;;5.14;69.40
68380;BME280;57711;53.196;19.638;2023-04-02T11:32:52;100243.79;;;5.22;69.27
68380;BME280;57711;53.196;19.638;2023-04-02T11:40:54;100250.64;;;5.29;69.21
68380;BME280;57711;53.196;19.638;2023-04-02T11:46:49;100252.94;;;5.33;69.34
68380;BME280;57711;53.196;19.638;2023-04-02T11:48:50;100254.02;;;5.33;69.36
68380;BME280;57711;53.196;19.638;2023-04-02T11:53:52;100259.39;;;5.35;69.24
68380;BME280;57711;53.196;19.638;2023-04-02T11:56:20;100261.45;;;5.39;69.43
68380;BME280;57711;53.196;19.638;2023-04-02T12:07:36;100268.61;;;5.55;69.47
68380;BME280;57711;53.196;19.638;2023-04-02T12:10:20;100269.27;;;5.61;69.62
68380;BME280;57711;53.196;19.638;2023-04-02T12:12:49;100269.55;;;5.65;69.45
68380;BME280;57711;53.196;19.638;2023-04-02T12:15:42;100274.11;;;5.66;69.33
68380;BME280;57711;53.196;19.638;2023-04-02T12:18:23;100274.68;;;5.71;69.31
68380;BME280;57711;53.196;19.638;2023-04-02T12:20:52;100281.75;;;5.73;69.18
68380;BME280;57711;53.196;19.638;2023-04-02T12:23:27;100282.85;;;5.75;69.22
68380;BME280;57711;53.196;19.638;2023-04-02T12:26:19;100283.73;;;5.75;69.03
68380;BME280;57711;53.196;19.638;2023-04-02T12:28:50;100288.49;;;5.74;69.14
68380;BME280;57711;53.196;19.638;2023-04-02T12:31:19;100294.99;;;5.74;69.22
68380;BME280;57711;53.196;19.638;2023-04-02T12:33:50;100291.91;;;5.71;69.01
68380;BME280;57711;53.196;19.638;2023-04-02T12:36:20;100298.10;;;5.67;68.98
68380;BME280;57711;53.196;19.638;2023-04-02T12:38:54;100298.02;;;5.68;69.13
68380;BME280;57711;53.196;19.638;2023-04-02T12:41:29;100300.41;;;5.70;69.06
68380;BME280;57711;53.196;19.638;2023-04-02T12:44:05;100306.73;;;5.73;68.97
68380;BME280;57711;53.196;19.638;2023-04-02T12:46:38;100309.85;;;5.74;69.04
68380;BME280;57711;53.196;19.638;2023-04-02T12:49:10;100312.60;;;5.73;68.93
68380;BME280;57711;53.196;19.638;2023-04-02T12:51:46;100317.42;;;5.73;68.98
68380;BME280;57711;53.196;19.638;2023-04-02T12:54:15;100320.61;;;5.74;69.04
68380;BME280;57711;53.196;19.638;2023-04-02T12:56:43;100320.42;;;5.74;68.95
68380;BME280;57711;53.196;19.638;2023-04-02T12:59:32;100325.50;;;5.73;69.01
68380;BME280;57711;53.196;19.638;2023-04-02T13:02:16;100329.35;;;5.77;69.13
68380;BME280;57711;53.196;19.638;2023-04-02T13:04:51;100333.66;;;5.85;69.24
68380;BME280;57711;53.196;19.638;2023-04-02T13:07:21;100331.89;;;5.93;68.93
68380;BME280;57711;53.196;19.638;2023-04-02T13:09:54;100334.13;;;5.97;68.89
68380;BME280;57711;53.196;19.638;2023-04-02T13:12:40;100336.96;;;6.00;68.96
68380;BME280;57711;53.196;19.638;2023-04-02T13:15:30;100341.94;;;6.01;68.88
68380;BME280;57711;53.196;19.638;2023-04-02T13:18:16;100345.21;;;6.03;68.88
68380;BME280;57711;53.196;19.638;2023-04-02T13:21:05;100344.86;;;6.03;68.86
68380;BME280;57711;53.196;19.638;2023-04-02T13:23:35;100349.27;;;6.04;68.88
68380;BME280;57711;53.196;19.638;2023-04-02T13:26:17;100352.35;;;6.06;68.69
68380;BME280;57711;53.196;19.638;2023-04-02T13:31:38;100359.76;;;6.11;68.48
68380;BME280;57711;53.196;19.638;2023-04-02T13:34:05;100357.42;;;6.11;68.50
68380;BME280;57711;53.196;19.638;2023-04-02T13:36:33;100366.40;;;6.08;68.46
68380;BME280;57711;53.196;19.638;2023-04-02T13:39:00;100366.02;;;6.06;68.45
68380;BME280;57711;53.196;19.638;2023-04-02T13:41:30;100371.85;;;6.04;68.46
68380;BME280;57711;53.196;19.638;2023-04-02T13:44:00;100374.96;;;6.03;68.54
68380;BME280;57711;53.196;19.638;2023-04-02T13:46:30;100378.27;;;6.03;68.54
68380;BME280;57711;53.196;19.638;2023-04-02T13:48:58;100380.96;;;6.02;68.63
68380;BME280;57711;53.196;19.638;2023-04-02T13:51:37;100384.25;;;6.04;68.56
68380;BME280;57711;53.196;19.638;2023-04-02T13:54:10;100384.59;;;6.04;68.31
68380;BME280;57711;53.196;19.638;2023-04-02T13:56:40;100383.98;;;6.05;68.37
68380;BME280;57711;53.196;19.638;2023-04-02T13:59:07;100388.80;;;6.06;68.33
68380;BME280;57711;53.196;19.638;2023-04-02T14:01:34;100391.01;;;6.08;68.53
68380;BME280;57711;53.196;19.638;2023-04-02T14:04:03;100392.02;;;6.09;68.31
68380;BME280;57711;53.196;19.638;2023-04-02T14:12:46;100394.77;;;6.13;68.38
68380;BME280;57711;53.196;19.638;2023-04-02T14:28:58;100418.52;;;6.07;67.97
68380;BME280;57711;53.196;19.638;2023-04-02T14:31:43;100424.23;;;6.08;68.00
68380;BME280;57711;53.196;19.638;2023-04-02T14:37:17;100432.86;;;6.10;68.04
68380;BME280;57711;53.196;19.638;2023-04-02T14:42:53;100432.02;;;6.15;67.89
68380;BME280;57711;53.196;19.638;2023-04-02T14:45:29;100434.04;;;6.17;67.82
68380;BME280;57711;53.196;19.638;2023-04-02T14:48:26;100436.66;;;6.18;67.78
68380;BME280;57711;53.196;19.638;2023-04-02T14:51:04;100441.46;;;6.18;67.77
68380;BME280;57711;53.196;19.638;2023-04-02T14:56:14;100446.12;;;6.21;67.86
68380;BME280;57711;53.196;19.638;2023-04-02T14:58:48;100449.82;;;6.20;67.64
68380;BME280;57711;53.196;19.638;2023-04-02T15:01:30;100450.24;;;6.19;67.67
68380;BME280;57711;53.196;19.638;2023-04-02T15:04:13;100457.28;;;6.18;67.71
68380;BME280;57711;53.196;19.638;2023-04-02T15:06:44;100460.21;;;6.20;67.68
68380;BME280;57711;53.196;19.638;2023-04-02T15:09:17;100458.89;;;6.23;67.61
68380;BME280;57711;53.196;19.638;2023-04-02T15:12:03;100464.41;;;6.27;67.74
68380;BME280;57711;53.196;19.638;2023-04-02T15:14:41;100468.57;;;6.29;67.58
68380;BME280;57711;53.196;19.638;2023-04-02T15:17:10;100474.10;;;6.30;67.45
68380;BME280;57711;53.196;19.638;2023-04-02T15:19:38;100475.10;;;6.31;67.59
68380;BME280;57711;53.196;19.638;2023-04-02T15:30:10;100489.08;;;6.26;67.54
68380;BME280;57711;53.196;19.638;2023-04-02T15:32:41;100492.19;;;6.25;67.55
68380;BME280;57711;53.196;19.638;2023-04-02T15:38:02;100506.91;;;6.22;67.41
68380;BME280;57711;53.196;19.638;2023-04-02T15:44:16;100513.00;;;6.20;67.33
68380;BME280;57711;53.196;19.638;2023-04-02T15:46:21;100520.77;;;6.16;67.20
68380;BME280;57711;53.196;19.638;2023-04-02T15:49:12;100526.04;;;6.13;67.20
68380;BME280;57711;53.196;19.638;2023-04-02T15:52:11;100523.34;;;6.10;67.13
68380;BME280;57711;53.196;19.638;2023-04-02T16:00:30;100532.42;;;5.98;67.04
68380;BME280;57711;53.196;19.638;2023-04-02T16:03:31;100536.41;;;5.97;67.15
68380;BME280;57711;53.196;19.638;2023-04-02T16:11:24;100549.57;;;5.96;66.97
68380;BME280;57711;53.196;19.638;2023-04-02T16:14:23;100555.48;;;5.96;67.06
68380;BME280;57711;53.196;19.638;2023-04-02T16:16:54;100555.17;;;5.95;66.93
68380;BME280;57711;53.196;19.638;2023-04-02T16:19:31;100558.68;;;5.93;66.90
68380;BME280;57711;53.196;19.638;2023-04-02T16:25:00;100563.69;;;5.94;66.96
68380;BME280;57711;53.196;19.638;2023-04-02T16:27:39;100564.10;;;5.93;66.87
68380;BME280;57711;53.196;19.638;2023-04-02T16:38:20;100577.27;;;5.95;66.74
68380;BME280;57711;53.196;19.638;2023-04-02T16:41:03;100579.45;;;5.97;66.66
68380;BME280;57711;53.196;19.638;2023-04-02T16:55:02;100598.35;;;5.94;66.40
68380;BME280;57711;53.196;19.638;2023-04-02T17:06:05;100618.08;;;5.77;66.16
68380;BME280;57711;53.196;19.638;2023-04-02T17:08:42;100621.33;;;5.71;66.12
68380;BME280;57711;53.196;19.638;2023-04-02T17:11:23;100624.15;;;5.66;66.13
68380;BME280;57711;53.196;19.638;2023-04-02T17:14:05;100627.94;;;5.62;66.10
68380;BME280;57711;53.196;19.638;2023-04-02T17:16:44;100631.10;;;5.61;66.10
68380;BME280;57711;53.196;19.638;2023-04-02T17:19:14;100634.41;;;5.60;66.21
68380;BME280;57711;53.196;19.638;2023-04-02T17:21:47;100638.58;;;5.59;66.12